createdAt,value
2018-10-21T00:02:09.361Z,31.00
2018-10-21T00:04:37.506Z,30.13
2018-10-21T00:07:05.603Z,30.60
2018-10-21T00:09:33.754Z,29.83
2018-10-21T00:12:01.879Z,30.33
2018-10-21T00:14:29.999Z,30.53
2018-10-21T00:16:58.221Z,31.77
2018-10-21T00:19:26.337Z,31.27
2018-10-21T00:21:54.432Z,32.93
2018-10-21T00:24:22.567Z,34.10
2018-10-21T00:26:50.665Z,33.33
2018-10-21T00:29:18.833Z,34.27
2018-10-21T00:31:46.930Z,33.37
2018-10-21T00:34:15.079Z,35.33
2018-10-21T00:36:43.185Z,35.63
2018-10-21T00:39:13.174Z,35.87
2018-10-21T00:41:41.372Z,33.80
2018-10-21T00:44:09.724Z,36.43
2018-10-21T00:46:38.043Z,36.90
2018-10-21T00:49:06.179Z,37.00
2018-10-21T00:51:34.319Z,34.13
2018-10-21T00:54:02.428Z,37.03
2018-10-21T00:56:30.538Z,36.07
2018-10-21T00:58:58.667Z,34.37
2018-10-21T01:01:26.879Z,35.73
2018-10-21T01:03:55.035Z,35.93
2018-10-21T01:06:23.355Z,34.47
2018-10-21T01:08:51.492Z,35.10
2018-10-21T01:11:19.647Z,34.57
2018-10-21T01:13:47.742Z,34.43
2018-10-21T01:16:15.839Z,33.73
2018-10-21T01:18:43.955Z,34.13
2018-10-21T01:21:12.139Z,32.83
2018-10-21T01:23:40.211Z,33.80
2018-10-21T01:26:08.370Z,34.43
2018-10-21T01:28:36.478Z,32.87
2018-10-21T01:31:04.719Z,32.63
2018-10-21T01:33:32.816Z,32.23
2018-10-21T01:36:00.978Z,32.13
2018-10-21T01:38:29.164Z,31.30
2018-10-21T01:40:59.885Z,31.23
2018-10-21T01:43:30.421Z,29.73
2018-10-21T01:45:59.199Z,29.63
2018-10-21T01:48:28.504Z,26.80
2018-10-21T01:50:56.689Z,26.33
2018-10-21T01:53:25.147Z,24.57
2018-10-21T01:55:53.318Z,23.70
2018-10-21T01:58:21.423Z,23.77
2018-10-21T02:00:49.544Z,24.00
2018-10-21T02:03:17.888Z,23.20
2018-10-21T02:05:46.635Z,23.47
2018-10-21T02:08:14.818Z,23.87
2018-10-21T02:10:43.010Z,22.50
2018-10-21T02:13:11.207Z,23.07
2018-10-21T02:15:39.303Z,21.40
2018-10-21T02:18:07.427Z,21.33
2018-10-21T02:20:35.608Z,21.27
2018-10-21T02:23:03.807Z,21.40
2018-10-21T02:25:31.947Z,21.97
2018-10-21T02:28:00.137Z,19.87
2018-10-21T02:30:29.306Z,21.67
2018-10-21T02:32:58.228Z,22.00
2018-10-21T02:35:26.383Z,22.27
2018-10-21T02:37:55.263Z,23.50
2018-10-21T02:41:29.181Z,24.07
2018-10-21T02:43:57.282Z,24.27
2018-10-21T02:46:25.640Z,23.23
2018-10-21T02:48:54.829Z,22.63
2018-10-21T02:51:22.915Z,22.67
2018-10-21T02:53:51.206Z,21.60
2018-10-21T02:56:19.354Z,21.03
2018-10-21T02:58:47.567Z,22.40
2018-10-21T03:01:15.696Z,22.87
2018-10-21T03:03:43.914Z,21.83
2018-10-21T03:06:12.015Z,22.50
2018-10-21T03:08:40.429Z,21.20
2018-10-21T03:11:08.523Z,21.40
2018-10-21T03:13:36.714Z,21.13
2018-10-21T03:16:05.159Z,21.00
2018-10-21T03:18:33.562Z,21.97
2018-10-21T03:21:02.677Z,21.97
2018-10-21T03:23:30.726Z,22.30
2018-10-21T03:25:59.383Z,22.30
2018-10-21T03:28:27.540Z,22.67
2018-10-21T03:30:55.727Z,22.67
2018-10-21T03:33:24.098Z,22.93
2018-10-21T03:35:52.059Z,22.90
2018-10-21T03:38:20.238Z,24.30
2018-10-21T03:40:48.366Z,24.73
2018-10-21T03:43:16.571Z,25.37
2018-10-21T03:45:44.673Z,26.00
2018-10-21T03:48:12.843Z,26.67
2018-10-21T03:50:41.062Z,26.17
2018-10-21T03:53:09.239Z,27.20
2018-10-21T03:55:39.271Z,26.47
2018-10-21T03:58:07.404Z,26.87
2018-10-21T04:00:36.015Z,28.40
2018-10-21T04:03:04.591Z,28.30
2018-10-21T04:05:33.047Z,29.30
2018-10-21T04:08:01.238Z,28.57
2018-10-21T04:10:29.407Z,29.83
2018-10-21T04:12:57.784Z,28.40
2018-10-21T04:15:25.938Z,31.17
2018-10-21T04:17:54.431Z,31.03
2018-10-21T04:20:22.721Z,31.30
2018-10-21T04:22:53.846Z,30.93
2018-10-21T04:25:22.870Z,32.23
2018-10-21T04:27:51.951Z,33.40
2018-10-21T04:30:26.375Z,31.67
2018-10-21T04:33:57.841Z,34.80
2018-10-21T04:36:29.533Z,33.03
2018-10-21T04:40:06.504Z,33.67
2018-10-21T04:42:34.594Z,34.90
2018-10-21T04:45:03.327Z,34.57
2018-10-21T04:47:31.818Z,33.63
2018-10-21T04:50:00.012Z,34.07
2018-10-21T04:52:29.192Z,34.07
2018-10-21T04:55:02.758Z,34.80
2018-10-21T04:57:30.860Z,35.53
2018-10-21T04:59:58.980Z,35.03
2018-10-21T05:02:27.552Z,34.27
2018-10-21T05:04:55.703Z,33.53
2018-10-21T05:07:24.063Z,35.37
2018-10-21T05:09:52.540Z,35.40
2018-10-21T05:12:20.719Z,35.60
2018-10-21T05:14:48.806Z,35.53
2018-10-21T05:17:16.923Z,35.20
2018-10-21T05:19:45.026Z,37.33
2018-10-21T05:22:13.149Z,37.33
2018-10-21T05:24:41.283Z,36.63
2018-10-21T05:27:09.454Z,35.30
2018-10-21T05:29:37.679Z,36.00
2018-10-21T05:32:05.803Z,36.77
2018-10-21T05:34:33.918Z,36.17
2018-10-21T05:37:02.056Z,37.33
2018-10-21T05:39:30.222Z,36.10
2018-10-21T05:41:58.315Z,36.43
2018-10-21T05:44:26.475Z,37.63
2018-10-21T05:46:54.593Z,37.27
2018-10-21T05:49:22.668Z,37.37
2018-10-21T05:51:51.602Z,36.33
2018-10-21T05:54:20.199Z,37.43
2018-10-21T05:56:50.623Z,38.30
2018-10-21T05:59:19.102Z,35.37
2018-10-21T06:01:47.794Z,35.80
2018-10-21T06:04:17.572Z,33.70
2018-10-21T06:06:45.751Z,32.60
2018-10-21T06:09:14.658Z,33.90
2018-10-21T06:11:42.760Z,32.23
2018-10-21T06:14:11.146Z,32.63
2018-10-21T06:16:46.596Z,33.17
2018-10-21T06:19:20.414Z,32.30
2018-10-21T06:21:48.559Z,32.93
2018-10-21T06:24:17.429Z,31.87
2018-10-21T06:26:45.545Z,31.83
2018-10-21T06:29:13.679Z,33.20
2018-10-21T06:31:41.804Z,32.37
2018-10-21T06:34:09.944Z,31.83
2018-10-21T06:36:38.121Z,30.70
2018-10-21T06:39:06.335Z,31.83
2018-10-21T06:41:34.368Z,31.37
2018-10-21T06:44:02.534Z,31.13
2018-10-21T06:46:30.687Z,30.23
2018-10-21T06:48:58.778Z,30.60
2018-10-21T06:51:26.891Z,31.87
2018-10-21T06:53:55.029Z,29.13
2018-10-21T06:56:23.155Z,29.33
2018-10-21T06:58:51.225Z,28.23
2018-10-21T07:01:19.455Z,28.50
2018-10-21T07:03:47.609Z,26.67
2018-10-21T07:06:17.017Z,28.00
2018-10-21T07:08:45.683Z,28.03
2018-10-21T07:11:14.347Z,27.13
2018-10-21T07:13:42.573Z,27.80
2018-10-21T07:16:10.992Z,27.07
2018-10-21T07:18:39.642Z,27.80
2018-10-21T07:21:07.806Z,26.43
2018-10-21T07:23:35.912Z,26.40
2018-10-21T07:26:04.250Z,26.13
2018-10-21T07:28:32.423Z,26.70
2018-10-21T07:31:00.611Z,26.40
2018-10-21T07:33:28.706Z,27.43
2018-10-21T07:35:57.235Z,26.40
2018-10-21T07:38:25.355Z,25.53
2018-10-21T07:40:53.699Z,25.80
2018-10-21T07:43:21.882Z,25.83
2018-10-21T07:45:49.973Z,25.33
2018-10-21T07:48:18.067Z,25.53
2018-10-21T07:50:46.216Z,23.83
2018-10-21T07:53:14.359Z,23.67
2018-10-21T07:55:42.946Z,25.30
2018-10-21T07:58:11.319Z,25.00
2018-10-21T08:00:39.393Z,24.60
2018-10-21T08:03:07.895Z,25.53
2018-10-21T08:05:41.487Z,24.73
2018-10-21T08:08:12.426Z,23.70
2018-10-21T08:10:40.631Z,23.37
2018-10-21T08:13:09.803Z,23.80
2018-10-21T08:15:37.904Z,25.13
2018-10-21T08:18:06.456Z,24.20
2018-10-21T08:20:34.816Z,24.67
2018-10-21T08:23:03.118Z,24.27
2018-10-21T08:25:31.319Z,22.90
2018-10-21T08:27:59.470Z,24.37
2018-10-21T08:30:27.562Z,23.87
2018-10-21T08:32:55.687Z,24.13
2018-10-21T08:35:23.776Z,24.33
2018-10-21T08:37:52.450Z,23.50
2018-10-21T08:40:20.552Z,24.83
2018-10-21T08:42:48.695Z,24.10
2018-10-21T08:45:16.811Z,22.93
2018-10-21T08:47:44.960Z,23.07
2018-10-21T08:50:13.662Z,22.80
2018-10-21T08:52:42.003Z,23.23
2018-10-21T08:55:11.075Z,22.83
2018-10-21T08:57:39.384Z,22.43
2018-10-21T09:00:09.667Z,22.40
2018-10-21T09:02:37.766Z,21.23
2018-10-21T09:05:06.929Z,22.23
2018-10-21T09:07:35.044Z,22.30
2018-10-21T09:10:03.307Z,22.67
2018-10-21T09:12:31.439Z,21.67
2018-10-21T09:14:59.577Z,22.33
2018-10-21T09:17:27.645Z,22.63
2018-10-21T09:19:55.929Z,21.37
2018-10-21T09:22:24.025Z,22.47
2018-10-21T09:24:52.188Z,23.40
2018-10-21T09:27:20.759Z,22.00
2018-10-21T09:29:48.984Z,22.83
2018-10-21T09:32:17.126Z,21.80
2018-10-21T09:34:45.347Z,23.40
2018-10-21T09:37:13.517Z,22.90
2018-10-21T09:39:42.048Z,21.37
2018-10-21T09:42:10.282Z,23.10
2018-10-21T09:44:38.402Z,21.80
2018-10-21T09:47:06.600Z,23.03
2018-10-21T09:49:34.788Z,23.73
2018-10-21T09:52:02.925Z,23.13
2018-10-21T09:54:31.087Z,24.23
2018-10-21T09:56:59.325Z,22.90
2018-10-21T09:59:27.424Z,23.40
2018-10-21T10:02:01.032Z,24.33
2018-10-21T10:04:29.251Z,25.53
2018-10-21T10:06:57.382Z,24.50
2018-10-21T10:09:25.538Z,25.13
2018-10-21T10:11:53.728Z,25.13
2018-10-21T10:14:21.859Z,25.53
2018-10-21T10:16:49.973Z,25.57
2018-10-21T10:19:18.199Z,25.37
2018-10-21T10:21:46.339Z,25.83
2018-10-21T10:24:14.468Z,25.60
2018-10-21T10:26:42.642Z,25.53
2018-10-21T10:29:10.923Z,25.37
2018-10-21T10:31:39.095Z,25.90
2018-10-21T10:34:07.330Z,27.73
2018-10-21T10:36:35.472Z,26.93
2018-10-21T10:39:03.766Z,27.53
2018-10-21T10:41:31.898Z,27.40
2018-10-21T10:44:00.064Z,27.93
2018-10-21T10:46:28.286Z,28.87
2018-10-21T10:48:56.438Z,26.67
2018-10-21T10:51:24.541Z,28.60
2018-10-21T10:53:52.680Z,27.93
2018-10-21T10:56:20.804Z,27.13
2018-10-21T10:58:48.903Z,27.90
2018-10-21T11:01:17.321Z,28.60
2018-10-21T11:03:46.194Z,30.03
2018-10-21T11:06:14.455Z,29.90
2018-10-21T11:08:45.592Z,27.43
2018-10-21T11:13:41.280Z,30.33
2018-10-21T11:16:09.868Z,29.77
2018-10-21T11:18:38.136Z,29.97
2018-10-21T11:21:06.619Z,30.80
2018-10-21T11:23:37.638Z,29.63
2018-10-21T11:26:05.756Z,29.87
2018-10-21T11:28:34.023Z,29.73
2018-10-21T11:31:02.222Z,29.30
2018-10-21T11:33:32.401Z,31.87
2018-10-21T11:36:00.555Z,31.10
2018-10-21T11:38:28.819Z,31.73
2018-10-21T11:40:57.032Z,31.50
2018-10-21T11:43:25.232Z,31.03
2018-10-21T11:45:53.414Z,30.63
2018-10-21T11:48:22.885Z,30.43
2018-10-21T11:50:51.031Z,29.47
2018-10-21T11:53:19.242Z,30.63
2018-10-21T11:55:47.344Z,30.10
2018-10-21T11:58:15.914Z,30.70
2018-10-21T12:00:45.584Z,31.50
2018-10-21T12:03:13.716Z,30.13
2018-10-21T12:05:42.842Z,33.00
2018-10-21T12:08:11.421Z,31.93
2018-10-21T12:10:39.743Z,30.17
2018-10-21T12:13:08.251Z,31.70
2018-10-21T12:15:37.108Z,30.57
2018-10-21T12:18:05.591Z,32.10
2018-10-21T12:20:33.783Z,30.47
2018-10-21T12:23:02.035Z,29.77
2018-10-21T12:25:30.117Z,29.53
2018-10-21T12:27:59.901Z,31.17
2018-10-21T12:30:28.056Z,30.07
2018-10-21T12:32:56.213Z,30.53
2018-10-21T12:35:24.347Z,30.30
2018-10-21T12:37:52.519Z,29.47
2018-10-21T12:40:21.355Z,29.33
2018-10-21T12:42:49.471Z,30.50
2018-10-21T12:45:17.643Z,31.37
2018-10-21T12:47:46.013Z,32.20
2018-10-21T12:50:14.455Z,29.63
2018-10-21T12:52:43.260Z,28.20
2018-10-21T12:55:11.472Z,28.83
2018-10-21T12:57:39.616Z,31.37
2018-10-21T13:00:08.479Z,31.50
2018-10-21T13:02:36.642Z,30.73
2018-10-21T13:05:05.445Z,32.03
2018-10-21T13:07:33.643Z,31.37
2018-10-21T13:10:01.848Z,31.70
2018-10-21T13:12:29.990Z,30.93
2018-10-21T13:14:58.185Z,30.97
2018-10-21T13:17:26.304Z,31.60
2018-10-21T13:19:54.643Z,30.80
2018-10-21T13:22:22.992Z,30.57
2018-10-21T13:24:51.131Z,31.20
2018-10-21T13:27:19.323Z,29.20
2018-10-21T13:29:47.600Z,30.93
2018-10-21T13:32:15.895Z,31.60
2018-10-21T13:34:44.633Z,32.33
2018-10-21T13:37:12.800Z,31.57
2018-10-21T13:39:40.923Z,30.57
2018-10-21T13:42:09.036Z,29.10
2018-10-21T13:44:37.176Z,29.20
2018-10-21T13:47:05.549Z,28.60
2018-10-21T13:49:34.307Z,29.33
2018-10-21T13:52:02.618Z,28.17
2018-10-21T13:54:30.604Z,28.73
2018-10-21T13:56:58.783Z,28.43
2018-10-21T13:59:26.961Z,29.93
2018-10-21T14:01:55.336Z,29.67
2018-10-21T14:04:23.761Z,30.17
2018-10-21T14:06:51.922Z,29.77
2018-10-21T14:09:20.034Z,29.00
2018-10-21T14:11:48.305Z,29.23
2018-10-21T14:14:16.482Z,29.17
2018-10-21T14:16:44.982Z,28.83
2018-10-21T14:19:13.171Z,28.83
2018-10-21T14:21:41.660Z,26.70
2018-10-21T14:24:09.923Z,29.13
2018-10-21T14:26:39.362Z,28.17
2018-10-21T14:29:07.520Z,28.67
2018-10-21T14:31:35.689Z,27.77
2018-10-21T14:34:03.881Z,28.77
2018-10-21T14:36:32.003Z,27.87
2018-10-21T14:39:00.209Z,28.90
2018-10-21T14:41:29.003Z,28.13
2018-10-21T14:43:57.748Z,27.37
2018-10-21T14:46:25.851Z,28.20
2018-10-21T14:48:53.958Z,28.57
2018-10-21T14:51:22.072Z,28.93
2018-10-21T14:53:50.243Z,28.43
2018-10-21T14:56:18.465Z,26.57
2018-10-21T14:58:46.531Z,28.97
2018-10-21T15:01:14.648Z,27.10
2018-10-21T15:03:42.752Z,28.67
2018-10-21T15:06:10.967Z,28.47
2018-10-21T15:08:39.016Z,27.83
2018-10-21T15:11:07.135Z,26.57
2018-10-21T15:13:35.823Z,26.77
2018-10-21T15:16:04.038Z,26.57
2018-10-21T15:18:32.294Z,25.50
2018-10-21T15:21:00.455Z,27.57
2018-10-21T15:23:28.690Z,24.90
2018-10-21T15:25:57.019Z,27.30
2018-10-21T15:28:25.284Z,24.83
2018-10-21T15:30:54.107Z,24.63
2018-10-21T15:33:22.537Z,24.07
2018-10-21T15:35:51.401Z,24.27
2018-10-21T15:38:20.282Z,23.10
2018-10-21T15:40:48.399Z,23.33
2018-10-21T15:43:17.017Z,22.10
2018-10-21T15:45:45.463Z,21.90
2018-10-21T15:48:13.712Z,22.17
2018-10-21T15:50:41.906Z,21.57
2018-10-21T15:53:10.007Z,21.60
2018-10-21T15:55:38.153Z,22.00
2018-10-21T15:58:07.011Z,21.87
2018-10-21T16:00:35.082Z,22.30
2018-10-21T16:03:03.281Z,22.40
2018-10-21T16:05:31.416Z,25.40
2018-10-21T16:07:59.576Z,22.87
2018-10-21T16:10:27.761Z,22.40
2018-10-21T16:12:55.914Z,22.07
2018-10-21T16:15:24.068Z,23.33
2018-10-21T16:17:52.177Z,22.53
2018-10-21T16:20:20.372Z,22.80
2018-10-21T16:22:48.707Z,23.03
2018-10-21T16:25:16.927Z,23.10
2018-10-21T16:27:45.072Z,22.93
2018-10-21T16:30:14.409Z,23.57
2018-10-21T16:32:43.480Z,23.07
2018-10-21T16:35:11.937Z,23.80
2018-10-21T16:37:40.615Z,22.93
2018-10-21T16:40:10.471Z,23.60
2018-10-21T16:42:39.207Z,23.60
2018-10-21T16:45:08.091Z,24.50
2018-10-21T16:47:37.339Z,23.43
2018-10-21T16:50:06.795Z,24.07
2018-10-21T16:52:34.998Z,24.90
2018-10-21T16:55:03.176Z,25.37
2018-10-21T16:57:31.374Z,26.33
2018-10-21T16:59:59.514Z,26.30
2018-10-21T17:02:27.666Z,24.67
2018-10-21T17:04:55.911Z,25.77
2018-10-21T17:07:24.024Z,25.33
2018-10-21T17:09:52.688Z,24.93
2018-10-21T17:13:49.760Z,24.90
2018-10-21T17:16:18.140Z,24.77
2018-10-21T17:18:46.266Z,25.53
2018-10-21T17:21:14.401Z,24.77
2018-10-21T17:23:42.555Z,25.07
2018-10-21T17:26:10.863Z,23.93
2018-10-21T17:28:39.196Z,25.17
2018-10-21T17:31:07.518Z,24.50
2018-10-21T17:33:35.635Z,24.83
2018-10-21T17:36:03.804Z,24.03
2018-10-21T17:38:32.039Z,22.47
2018-10-21T17:41:00.226Z,24.63
2018-10-21T17:43:28.359Z,25.07
2018-10-21T17:45:56.617Z,24.70
2018-10-21T17:48:24.778Z,26.03
2018-10-21T17:50:52.920Z,26.17
2018-10-21T17:53:21.055Z,25.13
2018-10-21T17:55:49.173Z,23.47
2018-10-21T17:58:17.711Z,23.73
2018-10-21T18:00:45.859Z,24.23
2018-10-21T18:03:14.104Z,23.07
2018-10-21T18:05:42.592Z,25.17
2018-10-21T18:08:10.820Z,25.73
2018-10-21T18:10:38.941Z,25.40
2018-10-21T18:13:07.123Z,25.27
2018-10-21T18:15:35.621Z,24.83
2018-10-21T18:18:03.766Z,26.50
2018-10-21T18:20:32.185Z,26.83
2018-10-21T18:23:00.431Z,26.87
2018-10-21T18:25:28.771Z,26.50
2018-10-21T18:27:56.998Z,26.53
2018-10-21T18:30:25.113Z,26.23
2018-10-21T18:32:53.411Z,25.03
2018-10-21T18:35:22.661Z,26.40
2018-10-21T18:37:52.700Z,27.67
2018-10-21T18:40:23.552Z,26.23
2018-10-21T18:42:56.160Z,27.23
2018-10-21T18:45:37.203Z,26.83
2018-10-21T18:48:06.541Z,27.60
2018-10-21T18:50:35.093Z,27.50
2018-10-21T18:53:03.271Z,28.23
2018-10-21T18:55:31.446Z,29.13
2018-10-21T18:57:59.973Z,28.27
2018-10-21T19:00:28.080Z,28.83
2018-10-21T19:02:56.199Z,30.10
2018-10-21T19:05:24.578Z,27.93
2018-10-21T19:07:52.968Z,27.13
2018-10-21T19:10:21.139Z,29.00
2018-10-21T19:12:59.573Z,29.17
2018-10-21T19:15:17.670Z,30.57
2018-10-21T19:17:46.011Z,34.73
2018-10-21T19:20:15.492Z,32.57
2018-10-21T19:22:43.615Z,32.53
2018-10-21T19:25:13.306Z,31.60
2018-10-21T19:27:41.892Z,29.30
2018-10-21T19:30:10.915Z,30.97
2018-10-21T19:32:39.371Z,29.53
2018-10-21T19:35:08.510Z,28.93
2018-10-21T19:37:36.960Z,30.40
2018-10-21T19:40:05.603Z,29.67
2018-10-21T19:42:35.565Z,28.50
2018-10-21T19:45:03.695Z,30.73
2018-10-21T19:47:31.818Z,30.53
2018-10-21T19:50:00.081Z,31.50
2018-10-21T19:52:28.456Z,30.67
2018-10-21T19:54:56.840Z,30.80
2018-10-21T19:57:25.320Z,32.10
2018-10-21T19:59:53.516Z,31.67
2018-10-21T20:02:21.736Z,31.63
2018-10-21T20:04:49.863Z,30.87
2018-10-21T20:07:18.155Z,31.73
2018-10-21T20:09:46.188Z,31.97
2018-10-21T20:12:14.355Z,32.03
2018-10-21T20:14:42.423Z,32.63
2018-10-21T20:17:10.595Z,32.07
2018-10-21T20:19:38.713Z,31.60
2018-10-21T20:22:08.264Z,31.43
2018-10-21T20:24:36.415Z,33.27
2018-10-21T20:27:04.899Z,33.20
2018-10-21T20:29:33.144Z,32.47
2018-10-21T20:32:01.264Z,34.37
2018-10-21T20:34:29.417Z,33.73
2018-10-21T20:36:57.587Z,33.63
2018-10-21T20:39:25.876Z,33.73
2018-10-21T20:41:54.042Z,32.67
2018-10-21T20:44:22.348Z,35.60
2018-10-21T20:46:50.455Z,32.73
2018-10-21T20:49:18.693Z,33.17
2018-10-21T20:51:47.049Z,34.07
2018-10-21T20:54:15.252Z,34.47
2018-10-21T20:56:43.400Z,38.27
2018-10-21T20:59:11.540Z,35.00
2018-10-21T21:01:39.678Z,36.33
2018-10-21T21:04:07.835Z,36.10
2018-10-21T21:06:35.938Z,37.10
2018-10-21T21:09:06.085Z,38.93
2018-10-21T21:11:34.327Z,40.60
2018-10-21T21:14:02.555Z,39.73
2018-10-21T21:16:30.661Z,40.80
2018-10-21T21:18:58.784Z,43.30
2018-10-21T21:21:26.915Z,43.53
2018-10-21T21:23:55.038Z,41.30
2018-10-21T21:26:23.163Z,41.57
2018-10-21T21:28:51.280Z,42.03
2018-10-21T21:31:19.413Z,43.00
2018-10-21T21:33:47.589Z,42.90
2018-10-21T21:36:15.814Z,40.53
2018-10-21T21:38:43.844Z,41.67
2018-10-21T21:41:11.967Z,41.83
2018-10-21T21:43:40.077Z,44.00
2018-10-21T21:46:08.348Z,42.77
2018-10-21T21:48:36.455Z,42.37
2018-10-21T21:51:04.607Z,44.17
2018-10-21T21:53:32.774Z,45.10
2018-10-21T21:56:01.100Z,43.27
2018-10-21T21:58:29.337Z,44.20
2018-10-21T22:00:57.542Z,41.33
2018-10-21T22:03:25.712Z,43.93
2018-10-21T22:05:53.867Z,42.70
2018-10-21T22:08:22.039Z,42.23
2018-10-21T22:10:50.140Z,43.43
2018-10-21T22:13:18.304Z,43.93
2018-10-21T22:15:46.607Z,42.70
2018-10-21T22:18:14.858Z,41.20
2018-10-21T22:20:42.994Z,40.67
2018-10-21T22:23:11.171Z,41.87
2018-10-21T22:25:39.407Z,41.73
2018-10-21T22:28:07.682Z,39.20
2018-10-21T22:30:35.751Z,38.70
2018-10-21T22:33:04.028Z,40.07
2018-10-21T22:35:32.154Z,38.23
2018-10-21T22:38:00.293Z,37.37
2018-10-21T22:40:28.415Z,37.77
2018-10-21T22:42:56.587Z,36.90
2018-10-21T22:45:24.853Z,37.60
2018-10-21T22:47:53.092Z,35.90
2018-10-21T22:50:21.255Z,34.73
2018-10-21T22:52:49.359Z,32.67
2018-10-21T22:55:17.467Z,29.77
2018-10-21T22:57:45.554Z,31.30
2018-10-21T23:00:13.721Z,26.93
2018-10-21T23:02:41.871Z,26.07
2018-10-21T23:05:10.043Z,26.90
2018-10-21T23:07:38.951Z,23.43
2018-10-21T23:10:07.089Z,22.77
2018-10-21T23:12:35.280Z,21.60
2018-10-21T23:15:03.488Z,20.77
2018-10-21T23:17:31.594Z,19.73
2018-10-21T23:19:59.694Z,19.93
2018-10-21T23:22:28.018Z,20.53
2018-10-21T23:24:56.171Z,20.33
2018-10-21T23:27:24.315Z,20.80
2018-10-21T23:29:52.434Z,21.20
2018-10-21T23:32:20.559Z,21.30
2018-10-21T23:34:48.654Z,21.80
2018-10-21T23:37:16.736Z,22.80
2018-10-21T23:39:44.838Z,23.33
2018-10-21T23:42:13.124Z,24.00
2018-10-21T23:44:41.170Z,25.50
2018-10-21T23:47:09.339Z,24.57
2018-10-21T23:49:37.439Z,25.33
2018-10-21T23:52:05.851Z,24.37
2018-10-21T23:54:33.936Z,24.10
2018-10-21T23:57:04.539Z,25.00
2018-10-21T23:59:32.877Z,24.20
